Time;durP1;ratioP1;P1;durP2;ratioP2;P2;SDS_P1;SDS_P2;PMS_P1;PMS_P2;Temp;Humidity;BMP_temperature;BMP_pressure;BME280_temperature;BME280_humidity;BME280_pressure;Samples;Min_cycle;Max_cycle;Signal;HPM_P1;HPM_P2
2022/12/27 00:00:05;;;;;;;4.77;0.80;;;;;;;;;;5074677;28;20253;-75
2022/12/27 00:02:39;;;;;;;9.40;1.70;;;;;;;;;;5071937;28;20442;-76
2022/12/27 00:05:07;;;;;;;5.93;0.83;;;;;;;;;;5057253;28;20462;-76
2022/12/27 00:07:36;;;;;;;5.00;1.23;;;;;;;;;;5075246;28;20427;-75
2022/12/27 00:10:04;;;;;;;6.00;0.90;;;;;;;;;;5063499;28;20440;-75
2022/12/27 00:12:52;;;;;;;4.40;0.80;;;;;;;;;;5057419;28;20428;-75
2022/12/27 00:15:19;;;;;;;4.47;1.57;;;;;;;;;;5054189;28;20460;-77
2022/12/27 00:17:46;;;;;;;6.97;1.43;;;;;;;;;;5072772;28;20490;-77
2022/12/27 00:20:14;;;;;;;9.07;1.47;;;;;;;;;;5067685;28;20443;-76
2022/12/27 00:22:41;;;;;;;7.80;1.50;;;;;;;;;;5090183;28;20944;-76
2022/12/27 00:25:24;;;;;;;6.87;0.93;;;;;;;;;;5091118;28;20451;-76
2022/12/27 00:27:51;;;;;;;9.63;1.60;;;;;;;;;;5074414;28;20980;-76
2022/12/27 00:30:19;;;;;;;6.53;1.10;;;;;;;;;;5074143;28;20473;-76
2022/12/27 00:32:46;;;;;;;8.87;1.10;;;;;;;;;;5092133;28;20521;-76
2022/12/27 00:35:15;;;;;;;7.30;1.67;;;;;;;;;;5074108;28;20415;-76
2022/12/27 00:37:42;;;;;;;5.03;1.13;;;;;;;;;;5037660;28;20486;-77
2022/12/27 00:40:10;;;;;;;7.67;1.27;;;;;;;;;;5061702;28;20430;-77
2022/12/27 00:42:39;;;;;;;7.40;1.17;;;;;;;;;;5091455;28;20431;-77
2022/12/27 00:45:06;;;;;;;9.67;1.60;;;;;;;;;;5069339;28;20531;-77
2022/12/27 00:47:34;;;;;;;6.40;1.27;;;;;;;;;;5071342;28;20436;-77
2022/12/27 00:50:03;;;;;;;6.80;1.27;;;;;;;;;;5070736;28;20472;-77
2022/12/27 00:52:49;;;;;;;5.13;0.90;;;;;;;;;;5090198;28;20424;-77
2022/12/27 00:55:17;;;;;;;9.00;1.43;;;;;;;;;;5091698;28;20435;-78
2022/12/27 00:57:45;;;;;;;9.13;1.63;;;;;;;;;;5090157;28;20566;-77
2022/12/27 01:00:13;;;;;;;4.73;1.10;;;;;;;;;;5087037;28;20436;-77
2022/12/27 01:02:40;;;;;;;10.00;1.97;;;;;;;;;;5071370;28;20801;-76
2022/12/27 01:05:08;;;;;;;10.93;1.87;;;;;;;;;;5053568;28;20936;-77
2022/12/27 01:07:38;;;;;;;10.13;1.20;;;;;;;;;;5053654;28;20432;-76
2022/12/27 01:10:05;;;;;;;5.93;1.63;;;;;;;;;;5034089;28;20531;-77
2022/12/27 01:12:33;;;;;;;9.17;1.63;;;;;;;;;;5046608;28;20805;-77
2022/12/27 01:15:37;;;;;;;11.33;2.10;;;;;;;;;;5033264;28;20505;-77
2022/12/27 01:18:05;;;;;;;11.87;1.07;;;;;;;;;;5050761;28;20469;-77
2022/12/27 01:20:33;;;;;;;6.43;1.10;;;;;;;;;;5016992;28;20441;-77
2022/12/27 01:23:00;;;;;;;9.40;1.80;;;;;;;;;;5050457;28;20483;-76
2022/12/27 01:25:28;;;;;;;10.13;1.80;;;;;;;;;;5033451;28;20449;-76
2022/12/27 01:27:55;;;;;;;14.70;2.23;;;;;;;;;;5066369;28;20457;-77
2022/12/27 01:30:22;;;;;;;9.10;1.80;;;;;;;;;;5032550;28;20851;-78
2022/12/27 01:32:51;;;;;;;6.20;1.37;;;;;;;;;;5049892;28;20986;-76
2022/12/27 01:35:18;;;;;;;11.10;1.67;;;;;;;;;;5032752;28;20441;-77
2022/12/27 01:37:45;;;;;;;9.80;1.93;;;;;;;;;;5074673;28;20548;-76
2022/12/27 01:40:12;;;;;;;13.67;2.30;;;;;;;;;;5069061;28;20444;-77
2022/12/27 01:42:52;;;;;;;10.80;2.23;;;;;;;;;;5070266;28;20519;-78
2022/12/27 01:45:19;;;;;;;9.87;1.67;;;;;;;;;;5069831;28;20871;-78
2022/12/27 01:47:46;;;;;;;13.03;2.17;;;;;;;;;;5051374;28;20436;-77
2022/12/27 01:50:24;;;;;;;10.97;2.00;;;;;;;;;;5038353;28;20487;-77
2022/12/27 01:53:03;;;;;;;15.10;2.50;;;;;;;;;;5068912;28;20446;-76
2022/12/27 01:55:38;;;;;;;12.67;1.60;;;;;;;;;;5053295;28;20440;-77
2022/12/27 01:58:16;;;;;;;10.87;2.00;;;;;;;;;;5066539;28;20474;-77
2022/12/27 02:00:43;;;;;;;7.60;2.17;;;;;;;;;;5050190;28;20445;-77
2022/12/27 02:03:12;;;;;;;9.70;1.90;;;;;;;;;;5036135;28;20190;-77
2022/12/27 02:05:40;;;;;;;12.40;2.20;;;;;;;;;;5035474;28;20805;-77
2022/12/27 02:08:13;;;;;;;16.00;2.17;;;;;;;;;;5051644;28;20455;-76
2022/12/27 02:10:41;;;;;;;9.20;1.93;;;;;;;;;;5052133;28;20440;-76
2022/12/27 02:13:08;;;;;;;3.77;0.90;;;;;;;;;;5051870;28;20432;-78
2022/12/27 02:16:06;;;;;;;14.20;1.93;;;;;;;;;;5052513;28;20452;-77
2022/12/27 02:18:33;;;;;;;11.23;1.80;;;;;;;;;;5068608;28;20494;-77
2022/12/27 02:21:10;;;;;;;14.03;2.00;;;;;;;;;;5051964;28;20491;-77
2022/12/27 02:26:34;;;;;;;9.00;1.73;;;;;;;;;;5068471;28;20479;-76
2022/12/27 02:29:10;;;;;;;9.23;1.80;;;;;;;;;;5088017;28;20484;-77
2022/12/27 02:31:43;;;;;;;6.20;1.10;;;;;;;;;;5088464;28;20526;-77
2022/12/27 02:34:14;;;;;;;8.07;1.20;;;;;;;;;;5070542;28;20462;-76
2022/12/27 02:36:41;;;;;;;12.07;2.73;;;;;;;;;;5087892;28;20451;-75
2022/12/27 02:39:09;;;;;;;8.27;1.43;;;;;;;;;;5051152;28;20526;-77
2022/12/27 02:53:08;;;;;;;5.00;0.77;;;;;;;;;;5078812;28;20486;-76
2022/12/27 02:57:07;;;;;;;8.00;1.90;;;;;;;;;;5056353;28;20443;-77
2022/12/27 02:58:38;;;;;;;12.60;1.70;;;;;;;;;;5067049;28;20468;-76
2022/12/27 03:03:59;;;;;;;9.73;1.70;;;;;;;;;;5091720;28;20439;-76
2022/12/27 03:06:38;;;;;;;12.13;1.50;;;;;;;;;;5082657;28;20538;-77
2022/12/27 03:09:08;;;;;;;10.07;2.33;;;;;;;;;;5098983;28;20490;-77
2022/12/27 03:17:12;;;;;;;10.07;1.43;;;;;;;;;;5093576;28;20450;-76
2022/12/27 03:25:28;;;;;;;7.00;1.40;;;;;;;;;;5098331;28;20426;-76
2022/12/27 03:33:31;;;;;;;12.03;2.03;;;;;;;;;;5057931;28;20484;-78
2022/12/27 03:39:02;;;;;;;9.60;1.30;;;;;;;;;;5072662;28;20532;-78
2022/12/27 03:44:25;;;;;;;8.50;1.97;;;;;;;;;;5077120;28;20537;-78
2022/12/27 03:46:59;;;;;;;8.57;1.80;;;;;;;;;;5084587;28;20452;-79
2022/12/27 03:49:38;;;;;;;6.57;2.20;;;;;;;;;;5094639;28;20494;-79
2022/12/27 03:52:41;;;;;;;4.53;0.97;;;;;;;;;;5089971;28;20450;-77
2022/12/27 03:55:09;;;;;;;14.10;1.80;;;;;;;;;;5000165;28;20969;-79
2022/12/27 03:57:40;;;;;;;17.20;2.10;;;;;;;;;;5027374;28;20443;-78
2022/12/27 04:00:14;;;;;;;7.83;1.20;;;;;;;;;;5057572;28;21129;-78
2022/12/27 04:02:42;;;;;;;9.37;2.20;;;;;;;;;;5074521;28;20427;-77
2022/12/27 04:05:10;;;;;;;9.17;2.10;;;;;;;;;;5057684;28;20546;-77
2022/12/27 04:07:36;;;;;;;8.13;1.90;;;;;;;;;;5074557;28;20522;-77
2022/12/27 04:35:27;;;;;;;9.57;1.70;;;;;;;;;;5076578;28;20435;-73
2022/12/27 04:37:54;;;;;;;9.27;1.80;;;;;;;;;;5072939;28;21108;-72
2022/12/27 04:57:33;;;;;;;16.43;2.47;;;;;;;;;;5037202;28;20478;-78
2022/12/27 05:02:48;;;;;;;14.63;3.03;;;;;;;;;;5096227;28;20543;-77
2022/12/27 05:05:15;;;;;;;14.80;3.07;;;;;;;;;;5108473;28;20443;-79
2022/12/27 05:15:59;;;;;;;12.23;3.13;;;;;;;;;;5090673;28;20515;-72
2022/12/27 05:18:26;;;;;;;14.00;2.73;;;;;;;;;;5097671;28;20455;-74
2022/12/27 05:20:52;;;;;;;12.87;2.30;;;;;;;;;;5090815;28;21115;-77
2022/12/27 05:26:07;;;;;;;9.77;2.13;;;;;;;;;;5086227;28;20739;-76
2022/12/27 05:28:35;;;;;;;11.50;2.47;;;;;;;;;;5090223;28;20432;-78
2022/12/27 05:31:01;;;;;;;9.37;2.13;;;;;;;;;;5090374;28;20933;-75
2022/12/27 05:33:31;;;;;;;13.27;2.47;;;;;;;;;;5071661;28;20437;-73
2022/12/27 05:35:58;;;;;;;12.63;2.53;;;;;;;;;;5078273;28;20446;-72
2022/12/27 05:38:25;;;;;;;12.73;2.20;;;;;;;;;;5109153;28;21054;-73
2022/12/27 05:40:56;;;;;;;10.07;1.97;;;;;;;;;;5109397;28;20979;-71
2022/12/27 05:43:23;;;;;;;12.37;2.60;;;;;;;;;;5107600;28;20787;-71
2022/12/27 05:45:49;;;;;;;7.40;2.03;;;;;;;;;;5110720;28;20426;-70
2022/12/27 05:48:16;;;;;;;9.63;2.50;;;;;;;;;;5109525;28;20550;-72
2022/12/27 05:51:04;;;;;;;8.43;2.20;;;;;;;;;;5093832;28;20482;-76
2022/12/27 05:53:31;;;;;;;7.67;2.20;;;;;;;;;;5088491;28;20451;-74
2022/12/27 05:55:59;;;;;;;7.17;2.33;;;;;;;;;;5094863;28;20438;-76
2022/12/27 05:58:26;;;;;;;6.53;2.27;;;;;;;;;;5072090;28;20459;-79
2022/12/27 06:00:52;;;;;;;7.93;2.67;;;;;;;;;;5075066;28;20534;-79
2022/12/27 06:03:19;;;;;;;10.60;3.03;;;;;;;;;;5073041;28;20454;-75
2022/12/27 06:05:46;;;;;;;11.73;3.50;;;;;;;;;;5107516;28;20438;-73
2022/12/27 06:08:13;;;;;;;9.33;3.23;;;;;;;;;;5090326;28;20944;-72
2022/12/27 06:10:39;;;;;;;10.07;3.07;;;;;;;;;;5108464;28;20453;-73
2022/12/27 06:13:06;;;;;;;13.40;3.47;;;;;;;;;;5082580;28;21005;-70
2022/12/27 06:15:33;;;;;;;11.13;3.77;;;;;;;;;;5110224;28;21117;-69
2022/12/27 06:18:02;;;;;;;13.97;3.63;;;;;;;;;;5101928;28;20527;-73
2022/12/27 06:20:29;;;;;;;7.73;1.87;;;;;;;;;;5052758;28;20503;-74
2022/12/27 06:23:00;;;;;;;13.83;2.73;;;;;;;;;;5070004;28;20456;-71
2022/12/27 06:25:27;;;;;;;17.10;3.00;;;;;;;;;;5071958;28;20481;-75
2022/12/27 06:27:59;;;;;;;11.87;1.77;;;;;;;;;;5079934;28;20451;-73
2022/12/27 06:30:28;;;;;;;23.90;2.17;;;;;;;;;;5057771;28;20431;-69
2022/12/27 06:33:02;;;;;;;5.60;1.90;;;;;;;;;;5044137;28;21109;-71
2022/12/27 06:35:29;;;;;;;10.37;2.57;;;;;;;;;;5067132;28;21009;-73
2022/12/27 06:37:56;;;;;;;8.43;2.50;;;;;;;;;;5088115;28;20465;-73
2022/12/27 06:40:23;;;;;;;9.67;1.90;;;;;;;;;;5094894;28;20585;-72
2022/12/27 06:42:50;;;;;;;13.43;3.30;;;;;;;;;;5061328;28;20467;-74
2022/12/27 06:45:17;;;;;;;6.40;1.93;;;;;;;;;;5064658;28;20438;-74
2022/12/27 06:47:44;;;;;;;8.43;2.67;;;;;;;;;;5078532;28;20527;-74
2022/12/27 06:50:11;;;;;;;7.40;2.33;;;;;;;;;;5060370;28;21318;-75
2022/12/27 06:52:39;;;;;;;4.17;1.17;;;;;;;;;;5062435;28;20882;-75
2022/12/27 06:55:06;;;;;;;6.27;2.10;;;;;;;;;;5045505;28;20451;-73
2022/12/27 06:57:32;;;;;;;11.73;2.50;;;;;;;;;;5034627;28;20488;-74
2022/12/27 07:00:00;;;;;;;10.77;2.00;;;;;;;;;;5068559;28;20572;-72
2022/12/27 07:02:27;;;;;;;8.23;2.50;;;;;;;;;;5078110;28;20440;-71
2022/12/27 07:04:56;;;;;;;7.23;2.03;;;;;;;;;;5066179;28;20483;-77
2022/12/27 07:07:30;;;;;;;9.73;2.00;;;;;;;;;;5005975;28;20941;-75
2022/12/27 07:09:57;;;;;;;11.87;2.00;;;;;;;;;;5020118;28;20452;-72
2022/12/27 07:12:24;;;;;;;7.83;2.40;;;;;;;;;;5039055;28;20556;-73
2022/12/27 07:14:51;;;;;;;8.93;2.17;;;;;;;;;;5062782;28;20458;-72
2022/12/27 07:17:18;;;;;;;5.73;2.17;;;;;;;;;;5043290;28;20452;-73
2022/12/27 07:19:46;;;;;;;8.97;2.07;;;;;;;;;;5049762;28;20467;-74
2022/12/27 07:22:13;;;;;;;12.17;2.47;;;;;;;;;;5026152;28;20495;-73
2022/12/27 07:24:40;;;;;;;11.17;2.73;;;;;;;;;;5036256;28;20849;-73
2022/12/27 07:27:24;;;;;;;12.43;3.00;;;;;;;;;;5037605;28;21010;-72
2022/12/27 07:29:51;;;;;;;11.13;2.67;;;;;;;;;;5043736;28;20449;-73
2022/12/27 07:32:22;;;;;;;8.50;2.97;;;;;;;;;;5040328;28;21032;-72
2022/12/27 07:34:50;;;;;;;11.23;3.27;;;;;;;;;;5022843;28;20452;-73
2022/12/27 07:37:19;;;;;;;6.70;2.10;;;;;;;;;;5077462;28;20475;-72
2022/12/27 07:39:49;;;;;;;9.33;2.90;;;;;;;;;;5076620;28;20570;-72
2022/12/27 07:42:16;;;;;;;7.80;2.80;;;;;;;;;;5052838;28;20456;-73
2022/12/27 07:44:43;;;;;;;8.57;1.80;;;;;;;;;;5066557;28;20460;-73
2022/12/27 07:47:28;;;;;;;5.57;1.97;;;;;;;;;;5050986;28;20457;-73
2022/12/27 07:49:56;;;;;;;5.70;1.63;;;;;;;;;;5060077;28;20456;-74
2022/12/27 07:52:24;;;;;;;7.53;2.60;;;;;;;;;;5057057;28;20463;-74
2022/12/27 07:54:52;;;;;;;5.07;1.33;;;;;;;;;;5014152;28;20456;-73
2022/12/27 07:57:19;;;;;;;5.17;2.30;;;;;;;;;;5043075;28;21099;-75
2022/12/27 07:59:45;;;;;;;6.30;2.10;;;;;;;;;;5076562;28;20475;-78
2022/12/27 08:02:15;;;;;;;8.63;2.23;;;;;;;;;;5069332;28;20500;-77
2022/12/27 08:04:42;;;;;;;5.37;2.10;;;;;;;;;;5046434;28;20571;-76
2022/12/27 08:07:28;;;;;;;11.53;3.20;;;;;;;;;;5052946;28;20448;-74
2022/12/27 08:09:55;;;;;;;13.77;3.50;;;;;;;;;;5071825;28;20490;-76
2022/12/27 08:12:22;;;;;;;8.93;3.37;;;;;;;;;;5071525;28;20438;-76
2022/12/27 08:14:49;;;;;;;11.53;3.63;;;;;;;;;;5057416;28;20435;-76
2022/12/27 08:17:20;;;;;;;9.87;3.23;;;;;;;;;;5073960;28;20532;-76
2022/12/27 08:19:49;;;;;;;6.53;1.87;;;;;;;;;;5071753;28;20533;-75
2022/12/27 08:22:16;;;;;;;6.53;1.90;;;;;;;;;;5067883;28;20444;-76
2022/12/27 08:24:48;;;;;;;10.10;2.80;;;;;;;;;;5064386;28;20641;-75
2022/12/27 08:27:20;;;;;;;8.20;2.33;;;;;;;;;;5037616;28;20775;-74
2022/12/27 08:29:49;;;;;;;11.60;2.73;;;;;;;;;;5076099;28;20432;-72
2022/12/27 08:32:15;;;;;;;7.23;2.60;;;;;;;;;;5072702;28;20437;-71
2022/12/27 08:34:45;;;;;;;8.97;2.60;;;;;;;;;;5054485;28;20493;-75
2022/12/27 08:37:16;;;;;;;4.87;1.80;;;;;;;;;;5050610;28;21034;-77
2022/12/27 08:39:46;;;;;;;7.87;2.43;;;;;;;;;;5050883;28;20482;-75
2022/12/27 08:42:18;;;;;;;4.20;1.67;;;;;;;;;;5034713;28;20460;-72
2022/12/27 08:44:46;;;;;;;8.63;2.43;;;;;;;;;;5047799;28;20447;-74
2022/12/27 08:47:16;;;;;;;10.17;2.93;;;;;;;;;;5061005;28;20431;-77
2022/12/27 08:49:43;;;;;;;7.43;2.13;;;;;;;;;;5054485;28;20476;-78
2022/12/27 08:52:10;;;;;;;5.37;2.03;;;;;;;;;;5077180;28;20444;-73
2022/12/27 08:54:39;;;;;;;5.50;2.30;;;;;;;;;;5081230;28;20448;-76
2022/12/27 08:57:07;;;;;;;5.83;2.00;;;;;;;;;;5074858;28;20431;-75
2022/12/27 08:59:35;;;;;;;7.80;2.37;;;;;;;;;;5081162;28;20973;-77
2022/12/27 09:05:18;;;;;;;10.80;2.60;;;;;;;;;;5079820;28;21080;-73
2022/12/27 09:07:45;;;;;;;5.13;2.03;;;;;;;;;;5062991;28;20521;-74
2022/12/27 09:10:12;;;;;;;12.53;2.53;;;;;;;;;;5083005;28;20580;-76
2022/12/27 09:12:39;;;;;;;7.43;2.03;;;;;;;;;;5066889;28;20464;-70
2022/12/27 09:15:07;;;;;;;10.50;2.70;;;;;;;;;;5065356;28;21007;-74
2022/12/27 09:17:34;;;;;;;10.17;3.00;;;;;;;;;;5080805;28;20917;-75
2022/12/27 09:20:03;;;;;;;8.33;3.03;;;;;;;;;;5083367;28;20471;-72
2022/12/27 09:22:35;;;;;;;6.50;2.50;;;;;;;;;;5066775;28;20443;-73
2022/12/27 09:25:08;;;;;;;10.00;2.33;;;;;;;;;;5049803;28;20467;-75
2022/12/27 09:27:38;;;;;;;11.50;3.03;;;;;;;;;;5081277;28;20432;-73
2022/12/27 09:30:05;;;;;;;5.23;1.73;;;;;;;;;;5083412;28;20430;-75
2022/12/27 09:32:34;;;;;;;6.50;2.50;;;;;;;;;;5066294;28;20495;-71
2022/12/27 09:35:02;;;;;;;11.07;3.07;;;;;;;;;;5066180;28;20803;-72
2022/12/27 09:37:30;;;;;;;9.17;2.20;;;;;;;;;;5077582;28;20781;-74
2022/12/27 09:39:57;;;;;;;10.73;2.77;;;;;;;;;;5065145;28;20515;-75
2022/12/27 09:42:37;;;;;;;6.80;2.00;;;;;;;;;;5081664;28;21009;-75
2022/12/27 09:45:33;;;;;;;7.50;3.20;;;;;;;;;;5082542;28;20439;-76
2022/12/27 09:48:06;;;;;;;9.27;3.03;;;;;;;;;;5051180;28;20430;-73
2022/12/27 09:50:34;;;;;;;10.87;3.50;;;;;;;;;;5042348;28;20656;-74
2022/12/27 09:53:21;;;;;;;4.37;1.90;;;;;;;;;;5063472;28;20463;-75
2022/12/27 09:55:50;;;;;;;6.77;2.17;;;;;;;;;;5021955;28;20440;-72
2022/12/27 09:58:26;;;;;;;8.23;2.90;;;;;;;;;;5069764;28;20428;-72
2022/12/27 10:01:34;;;;;;;7.07;2.70;;;;;;;;;;5069972;28;20597;-72
2022/12/27 10:04:01;;;;;;;5.67;2.43;;;;;;;;;;5054039;28;20448;-73
2022/12/27 10:06:46;;;;;;;7.23;2.47;;;;;;;;;;5069767;28;20770;-73
2022/12/27 10:09:23;;;;;;;4.63;2.23;;;;;;;;;;5069770;28;20421;-72
2022/12/27 10:11:53;;;;;;;9.20;2.70;;;;;;;;;;5069617;28;20874;-72
2022/12/27 10:14:43;;;;;;;6.53;2.50;;;;;;;;;;5069719;28;20515;-72
2022/12/27 10:17:14;;;;;;;11.07;2.70;;;;;;;;;;5029754;28;20451;-72
2022/12/27 10:19:47;;;;;;;7.27;3.00;;;;;;;;;;5023752;28;20472;-74
2022/12/27 10:22:22;;;;;;;5.97;2.03;;;;;;;;;;5069061;28;20989;-70
2022/12/27 10:24:51;;;;;;;6.67;2.03;;;;;;;;;;5032972;28;20464;-79
2022/12/27 10:27:24;;;;;;;8.00;3.00;;;;;;;;;;5051838;28;20452;-70
2022/12/27 10:29:52;;;;;;;7.23;3.00;;;;;;;;;;5051884;28;20520;-76
2022/12/27 10:32:19;;;;;;;8.57;3.10;;;;;;;;;;5051715;28;20884;-76
2022/12/27 10:34:56;;;;;;;8.87;3.63;;;;;;;;;;5069357;28;20551;-78
2022/12/27 10:37:41;;;;;;;9.73;3.77;;;;;;;;;;5037385;28;20935;-74
2022/12/27 10:40:16;;;;;;;6.73;2.23;;;;;;;;;;5042150;28;20473;-73
2022/12/27 10:42:46;;;;;;;12.53;3.60;;;;;;;;;;5037602;28;21192;-73
2022/12/27 10:45:27;;;;;;;6.57;3.70;;;;;;;;;;5053959;28;20430;-72
2022/12/27 10:48:13;;;;;;;8.80;4.37;;;;;;;;;;5049323;28;20420;-70
2022/12/27 10:51:01;;;;;;;6.87;3.30;;;;;;;;;;5049047;28;20476;-75
2022/12/27 10:53:28;;;;;;;7.73;3.10;;;;;;;;;;5041781;28;20423;-74
2022/12/27 10:56:09;;;;;;;7.27;3.17;;;;;;;;;;5069107;28;20784;-76
2022/12/27 10:58:43;;;;;;;6.60;2.97;;;;;;;;;;5031969;28;20969;-77
2022/12/27 11:01:26;;;;;;;6.63;2.10;;;;;;;;;;5051380;28;20486;-72
2022/12/27 11:04:09;;;;;;;4.03;2.27;;;;;;;;;;5069514;28;20919;-71
2022/12/27 11:06:46;;;;;;;5.60;2.27;;;;;;;;;;5071436;28;20452;-72
2022/12/27 11:09:16;;;;;;;5.43;2.30;;;;;;;;;;5054014;28;20440;-77
2022/12/27 11:11:43;;;;;;;2.03;1.30;;;;;;;;;;5072871;28;20432;-75
2022/12/27 11:14:12;;;;;;;6.23;1.93;;;;;;;;;;5072939;28;20767;-74
2022/12/27 11:16:40;;;;;;;5.53;2.93;;;;;;;;;;5037930;28;20448;-77
2022/12/27 11:19:13;;;;;;;3.67;2.40;;;;;;;;;;5072030;28;20416;-77
2022/12/27 11:21:41;;;;;;;3.47;2.20;;;;;;;;;;5069430;28;20837;-77
2022/12/27 11:24:11;;;;;;;4.37;2.27;;;;;;;;;;5066710;28;20432;-75
2022/12/27 11:26:59;;;;;;;6.63;2.97;;;;;;;;;;5049358;28;21284;-74
2022/12/27 11:29:27;;;;;;;7.80;2.50;;;;;;;;;;5050620;28;20905;-73
2022/12/27 11:31:56;;;;;;;5.67;2.80;;;;;;;;;;5020021;28;20562;-73
2022/12/27 11:34:35;;;;;;;3.50;2.63;;;;;;;;;;5036426;28;20451;-73
2022/12/27 11:37:03;;;;;;;7.80;3.30;;;;;;;;;;5016492;28;21260;-71
2022/12/27 11:39:43;;;;;;;3.50;2.47;;;;;;;;;;5045376;28;20495;-74
2022/12/27 11:42:17;;;;;;;4.73;2.07;;;;;;;;;;5062490;28;20454;-74
2022/12/27 11:44:51;;;;;;;6.27;2.80;;;;;;;;;;5064996;28;20446;-74
2022/12/27 11:47:30;;;;;;;4.53;2.93;;;;;;;;;;5065835;28;20514;-74
2022/12/27 11:50:18;;;;;;;6.70;2.67;;;;;;;;;;5043955;28;20464;-71
2022/12/27 11:52:47;;;;;;;7.43;3.30;;;;;;;;;;5056147;28;20434;-78
2022/12/27 11:55:32;;;;;;;4.43;1.83;;;;;;;;;;5057540;28;20547;-74
2022/12/27 11:58:12;;;;;;;3.27;2.43;;;;;;;;;;5066049;28;20196;-70
2022/12/27 12:01:04;;;;;;;3.23;2.03;;;;;;;;;;5053106;28;20469;-72
2022/12/27 12:03:34;;;;;;;5.80;2.30;;;;;;;;;;5011277;28;20456;-73
2022/12/27 12:06:19;;;;;;;3.97;2.00;;;;;;;;;;5051062;28;20540;-72
2022/12/27 12:08:53;;;;;;;2.10;1.77;;;;;;;;;;5056546;28;20510;-71
2022/12/27 12:11:23;;;;;;;5.67;2.87;;;;;;;;;;5042463;28;20538;-71
2022/12/27 12:14:06;;;;;;;6.73;2.97;;;;;;;;;;5060768;28;20444;-74
2022/12/27 12:16:54;;;;;;;6.13;2.20;;;;;;;;;;5053873;28;20444;-74
2022/12/27 12:19:57;;;;;;;2.77;1.63;;;;;;;;;;5044226;28;20794;-74
2022/12/27 12:22:30;;;;;;;5.10;2.40;;;;;;;;;;5048884;28;20468;-73
2022/12/27 12:25:17;;;;;;;5.00;2.07;;;;;;;;;;5048721;28;20528;-71
2022/12/27 12:27:46;;;;;;;6.20;2.10;;;;;;;;;;5036541;28;20552;-73
2022/12/27 12:30:22;;;;;;;3.73;2.27;;;;;;;;;;5059988;28;20782;-73
2022/12/27 12:32:59;;;;;;;4.03;2.60;;;;;;;;;;5035274;28;20459;-73
2022/12/27 12:35:33;;;;;;;2.20;1.30;;;;;;;;;;5058548;28;20958;-73
2022/12/27 12:38:11;;;;;;;3.17;1.77;;;;;;;;;;5051622;28;20487;-76
2022/12/27 12:40:44;;;;;;;5.70;2.50;;;;;;;;;;5047125;28;20911;-76
2022/12/27 12:43:17;;;;;;;2.30;1.50;;;;;;;;;;5063923;28;20448;-75
2022/12/27 12:45:47;;;;;;;3.60;1.73;;;;;;;;;;5056674;28;21182;-77
2022/12/27 12:48:24;;;;;;;9.20;2.63;;;;;;;;;;5062999;28;20473;-73
2022/12/27 12:51:02;;;;;;;5.83;2.03;;;;;;;;;;5035501;28;20452;-73
2022/12/27 12:53:32;;;;;;;3.10;2.20;;;;;;;;;;5071530;28;20419;-77
2022/12/27 12:55:59;;;;;;;3.07;2.20;;;;;;;;;;5080596;28;20434;-71
2022/12/27 12:58:29;;;;;;;5.40;3.20;;;;;;;;;;5056463;28;20468;-75
2022/12/27 13:00:59;;;;;;;6.20;3.50;;;;;;;;;;5062076;28;20480;-75
2022/12/27 13:03:44;;;;;;;4.83;2.80;;;;;;;;;;5070758;28;20444;-75
2022/12/27 13:06:37;;;;;;;5.70;3.60;;;;;;;;;;5053679;28;20440;-75
2022/12/27 13:09:08;;;;;;;4.53;2.90;;;;;;;;;;5053232;28;20425;-75
2022/12/27 13:11:54;;;;;;;5.13;2.20;;;;;;;;;;5070749;28;20428;-75
2022/12/27 13:14:27;;;;;;;4.50;2.57;;;;;;;;;;5055486;28;20851;-75
2022/12/27 13:17:00;;;;;;;2.93;2.03;;;;;;;;;;5032804;28;20442;-75
2022/12/27 13:19:57;;;;;;;4.60;3.00;;;;;;;;;;5055728;28;21264;-73
2022/12/27 13:22:37;;;;;;;3.73;2.53;;;;;;;;;;5041270;28;20869;-73
2022/12/27 13:25:07;;;;;;;4.93;2.77;;;;;;;;;;5056572;28;21016;-75
2022/12/27 13:27:39;;;;;;;5.23;2.63;;;;;;;;;;5048197;28;20428;-75
2022/12/27 13:30:14;;;;;;;6.97;3.07;;;;;;;;;;5054995;28;20471;-71
2022/12/27 13:33:04;;;;;;;7.03;3.30;;;;;;;;;;5070841;28;20865;-78
2022/12/27 13:35:44;;;;;;;4.27;2.43;;;;;;;;;;5052153;28;20425;-73
2022/12/27 13:38:40;;;;;;;7.57;4.47;;;;;;;;;;5061750;28;20474;-76
2022/12/27 13:41:24;;;;;;;3.17;2.03;;;;;;;;;;5057736;28;20569;-77
2022/12/27 13:43:59;;;;;;;6.83;3.17;;;;;;;;;;5074056;28;20866;-76
2022/12/27 13:46:31;;;;;;;7.27;3.30;;;;;;;;;;5048595;28;21085;-78
2022/12/27 13:49:17;;;;;;;7.33;3.97;;;;;;;;;;5046859;28;20437;-76
2022/12/27 13:51:45;;;;;;;6.57;3.30;;;;;;;;;;5080330;28;20428;-74
2022/12/27 13:54:24;;;;;;;6.00;3.87;;;;;;;;;;5081151;28;20455;-74
2022/12/27 13:56:57;;;;;;;5.97;3.57;;;;;;;;;;5067124;28;20450;-72
2022/12/27 13:59:29;;;;;;;6.30;2.93;;;;;;;;;;5072306;28;20462;-73
2022/12/27 14:02:00;;;;;;;3.63;1.97;;;;;;;;;;5074015;28;20485;-76
2022/12/27 14:04:27;;;;;;;4.80;2.77;;;;;;;;;;5083818;28;20898;-77
2022/12/27 14:07:21;;;;;;;12.70;6.90;;;;;;;;;;5086198;28;20463;-75
2022/12/27 14:09:57;;;;;;;5.37;3.20;;;;;;;;;;5047037;28;20934;-73
2022/12/27 14:12:33;;;;;;;5.93;2.33;;;;;;;;;;5087436;28;20453;-70
2022/12/27 14:15:01;;;;;;;8.33;3.77;;;;;;;;;;5088954;28;20507;-70
2022/12/27 14:17:35;;;;;;;6.27;2.57;;;;;;;;;;5058214;28;20455;-71
2022/12/27 14:20:27;;;;;;;8.93;4.77;;;;;;;;;;5067830;28;20447;-71
2022/12/27 14:23:07;;;;;;;5.30;3.30;;;;;;;;;;5052417;28;20439;-79
2022/12/27 14:26:10;;;;;;;3.30;2.17;;;;;;;;;;5084020;28;20435;-79
2022/12/27 14:28:45;;;;;;;8.23;4.27;;;;;;;;;;5079409;28;20450;-79
2022/12/27 14:31:12;;;;;;;5.67;3.37;;;;;;;;;;5071097;28;20486;-79
2022/12/27 14:33:54;;;;;;;6.53;3.03;;;;;;;;;;5089993;28;20431;-79
2022/12/27 14:36:40;;;;;;;3.17;1.60;;;;;;;;;;5088340;28;20424;-78
2022/12/27 14:39:25;;;;;;;6.00;2.53;;;;;;;;;;5080726;28;20461;-78
2022/12/27 14:41:58;;;;;;;5.17;2.90;;;;;;;;;;5078481;28;20564;-79
2022/12/27 14:44:34;;;;;;;6.53;3.03;;;;;;;;;;5071372;28;20432;-79
2022/12/27 14:47:11;;;;;;;5.73;2.07;;;;;;;;;;5089964;28;20466;-79
2022/12/27 14:49:38;;;;;;;4.77;2.00;;;;;;;;;;5071804;28;20469;-79
2022/12/27 14:52:17;;;;;;;5.10;2.03;;;;;;;;;;5089575;28;20459;-78
2022/12/27 14:54:50;;;;;;;3.33;1.20;;;;;;;;;;5089066;28;20530;-79
2022/12/27 14:57:24;;;;;;;8.13;3.03;;;;;;;;;;5087793;28;21140;-79
2022/12/27 14:59:58;;;;;;;3.80;2.50;;;;;;;;;;5079074;28;20985;-73
2022/12/27 15:02:28;;;;;;;4.57;2.70;;;;;;;;;;5089085;28;20471;-76
2022/12/27 15:05:04;;;;;;;3.93;1.67;;;;;;;;;;5087539;28;21007;-76
2022/12/27 15:07:37;;;;;;;4.47;2.07;;;;;;;;;;5096149;28;20435;-76
2022/12/27 15:10:36;;;;;;;3.97;1.70;;;;;;;;;;5093418;28;20439;-76
2022/12/27 15:13:12;;;;;;;6.33;1.73;;;;;;;;;;5072086;28;20846;-74
2022/12/27 15:15:57;;;;;;;6.57;2.10;;;;;;;;;;5074439;28;20435;-78
2022/12/27 15:18:43;;;;;;;4.73;1.67;;;;;;;;;;5093528;28;20817;-77
2022/12/27 15:21:10;;;;;;;6.27;1.80;;;;;;;;;;5099497;28;20502;-77
2022/12/27 15:23:55;;;;;;;3.53;1.70;;;;;;;;;;5102445;28;20437;-77
2022/12/27 15:26:27;;;;;;;3.53;1.93;;;;;;;;;;5104050;28;20443;-76
2022/12/27 15:29:00;;;;;;;5.77;2.40;;;;;;;;;;5088881;28;21888;-78
2022/12/27 15:31:39;;;;;;;3.60;1.50;;;;;;;;;;5070023;28;21303;-73
2022/12/27 15:34:23;;;;;;;3.80;1.77;;;;;;;;;;5081949;28;20607;-74
2022/12/27 15:36:56;;;;;;;2.50;1.23;;;;;;;;;;5082376;28;20447;-76
2022/12/27 15:39:37;;;;;;;3.17;1.50;;;;;;;;;;5039972;28;20558;-74
2022/12/27 15:42:47;;;;;;;3.80;1.80;;;;;;;;;;5066912;28;20597;-74
2022/12/27 15:45:25;;;;;;;5.23;2.57;;;;;;;;;;5045935;28;20463;-72
2022/12/27 15:47:56;;;;;;;10.20;3.17;;;;;;;;;;5061524;28;20966;-73
2022/12/27 15:50:28;;;;;;;9.97;3.43;;;;;;;;;;5065153;28;21052;-74
2022/12/27 15:53:01;;;;;;;11.17;4.50;;;;;;;;;;5050600;28;20436;-73
2022/12/27 15:55:41;;;;;;;7.03;2.47;;;;;;;;;;5059332;28;20493;-72
2022/12/27 15:58:17;;;;;;;10.13;3.97;;;;;;;;;;5064746;28;20436;-75
2022/12/27 16:03:36;;;;;;;7.53;2.93;;;;;;;;;;4805200;23;217960;-80
2022/12/27 16:06:09;;;;;;;8.63;3.77;;;;;;;;;;4757203;29;233789;-81
2022/12/27 16:08:59;;;;;;;5.50;3.27;;;;;;;;;;4792766;29;255908;-83
2022/12/27 16:11:53;;;;;;;5.70;2.67;;;;;;;;;;4879427;29;20531;-76
2022/12/27 16:14:25;;;;;;;6.23;1.77;;;;;;;;;;4740980;29;259044;-78
2022/12/27 16:16:57;;;;;;;6.97;3.00;;;;;;;;;;4844546;29;217918;-73
2022/12/27 16:19:25;;;;;;;12.03;4.27;;;;;;;;;;4862392;29;232755;-79
2022/12/27 16:21:55;;;;;;;11.80;4.40;;;;;;;;;;4826628;29;222818;-77
2022/12/27 16:24:23;;;;;;;8.13;3.33;;;;;;;;;;4806392;29;219721;-80
2022/12/27 16:26:56;;;;;;;11.70;4.13;;;;;;;;;;4716541;29;609027;-81
2022/12/27 16:29:25;;;;;;;5.77;2.23;;;;;;;;;;4778897;29;221126;-78
2022/12/27 16:32:10;;;;;;;7.83;3.13;;;;;;;;;;4858379;29;256336;-76
2022/12/27 16:34:38;;;;;;;4.13;1.77;;;;;;;;;;4878509;29;20541;-76
2022/12/27 16:37:16;;;;;;;6.33;2.83;;;;;;;;;;4842976;29;220495;-79
2022/12/27 16:43:49;;;;;;;6.87;2.77;;;;;;;;;;4781724;29;242014;-82
2022/12/27 16:46:47;;;;;;;6.77;3.23;;;;;;;;;;4794720;29;227751;-77
2022/12/27 16:49:36;;;;;;;8.13;3.27;;;;;;;;;;4761446;29;605366;-79
2022/12/27 16:52:08;;;;;;;7.50;3.00;;;;;;;;;;4802875;29;234677;-81
2022/12/27 16:54:42;;;;;;;7.63;3.60;;;;;;;;;;4759563;29;639031;-80
2022/12/27 16:57:20;;;;;;;6.53;3.33;;;;;;;;;;4733017;29;244028;-78
2022/12/27 17:00:07;;;;;;;3.80;2.47;;;;;;;;;;4750373;29;231315;-73